Time;durP1;ratioP1;P1;durP2;ratioP2;P2;SDS_P1;SDS_P2;PMS_P1;PMS_P2;Temp;Humidity;BMP_temperature;BMP_pressure;BME280_temperature;BME280_humidity;BME280_pressure;Samples;Min_cycle;Max_cycle;Signal;HPM_P1;HPM_P2
2022/01/19 00:01:03;;;;;;;10.43;5.73;;;4.80;97.30;;;;;;5054664;28;20211;-85
2022/01/19 00:03:28;;;;;;;8.70;5.13;;;4.80;97.30;;;;;;5054924;28;20184;-84
2022/01/19 00:05:54;;;;;;;10.80;5.40;;;4.80;97.30;;;;;;5054541;28;20945;-85
2022/01/19 00:08:21;;;;;;;9.97;5.37;;;4.80;97.30;;;;;;5072661;28;20427;-85
2022/01/19 00:10:49;;;;;;;13.63;5.83;;;4.70;97.30;;;;;;5054265;28;20203;-85
2022/01/19 00:13:16;;;;;;;10.13;5.00;;;4.70;97.30;;;;;;5054621;28;20409;-85
2022/01/19 00:15:42;;;;;;;11.17;5.33;;;4.70;97.30;;;;;;5054309;28;20413;-84
2022/01/19 00:18:07;;;;;;;14.27;6.03;;;4.70;97.30;;;;;;5054439;28;20417;-84
2022/01/19 00:20:34;;;;;;;9.90;5.37;;;4.70;97.30;;;;;;5054528;28;20425;-85
2022/01/19 00:23:02;;;;;;;12.73;5.30;;;4.70;97.30;;;;;;5054198;28;20562;-84
2022/01/19 00:25:28;;;;;;;10.43;5.13;;;4.70;97.30;;;;;;5072392;28;20459;-85
2022/01/19 00:27:53;;;;;;;9.67;4.87;;;4.70;97.30;;;;;;5073193;28;20541;-84
2022/01/19 00:30:19;;;;;;;17.37;5.73;;;4.70;97.30;;;;;;5053850;28;20548;-85
2022/01/19 00:32:45;;;;;;;10.17;5.17;;;4.70;97.30;;;;;;5053970;28;20190;-85
2022/01/19 00:35:12;;;;;;;9.67;5.77;;;4.70;97.30;;;;;;5066694;28;20182;-85
2022/01/19 00:37:39;;;;;;;11.73;4.83;;;4.70;97.30;;;;;;5073866;28;20419;-85
2022/01/19 00:40:06;;;;;;;7.50;4.40;;;4.70;97.30;;;;;;5073675;28;20479;-84
2022/01/19 00:42:32;;;;;;;11.07;5.43;;;4.70;97.30;;;;;;5074299;28;20507;-85
2022/01/19 00:44:57;;;;;;;9.40;4.40;;;4.70;97.30;;;;;;5073992;28;20515;-85
2022/01/19 00:47:23;;;;;;;9.03;4.23;;;4.70;97.30;;;;;;5077555;28;20266;-85
2022/01/19 00:49:49;;;;;;;9.13;4.10;;;4.70;97.30;;;;;;5092383;28;20371;-85
2022/01/19 00:52:14;;;;;;;9.30;4.97;;;4.70;97.30;;;;;;5073580;28;20171;-85
2022/01/19 00:54:41;;;;;;;14.57;5.57;;;4.70;97.30;;;;;;5073969;28;20175;-84
2022/01/19 00:57:08;;;;;;;9.00;5.30;;;4.70;97.30;;;;;;5091743;28;20178;-84
2022/01/19 00:59:33;;;;;;;8.17;4.47;;;4.70;97.30;;;;;;5073942;28;21053;-85
2022/01/19 01:02:00;;;;;;;10.93;5.10;;;4.70;97.30;;;;;;5073393;28;20504;-84
2022/01/19 01:04:26;;;;;;;10.40;5.30;;;4.70;97.30;;;;;;5073462;28;20185;-85
2022/01/19 01:06:51;;;;;;;10.27;5.30;;;4.70;97.30;;;;;;5073678;28;20413;-85
2022/01/19 01:09:17;;;;;;;11.83;5.10;;;4.80;97.30;;;;;;5077571;28;20480;-84
2022/01/19 01:12:09;;;;;;;8.73;5.13;;;4.80;97.30;;;;;;5074187;28;20395;-85
2022/01/19 01:20:06;;;;;;;8.43;4.50;;;4.80;97.30;;;;;;5092256;28;21044;-85
2022/01/19 01:22:32;;;;;;;8.43;3.73;;;4.80;97.30;;;;;;5093272;28;20404;-85
2022/01/19 01:24:57;;;;;;;8.67;3.93;;;4.80;97.30;;;;;;5090964;28;20409;-85
2022/01/19 01:27:23;;;;;;;12.37;4.83;;;4.80;97.30;;;;;;5072964;28;20648;-85
2022/01/19 01:29:49;;;;;;;6.53;3.93;;;4.80;97.30;;;;;;5090867;28;20285;-86
2022/01/19 01:32:14;;;;;;;8.93;4.27;;;4.80;97.30;;;;;;5090973;28;20604;-85
2022/01/19 01:34:40;;;;;;;9.57;4.23;;;4.80;97.30;;;;;;5064294;28;20190;-86
2022/01/19 01:37:05;;;;;;;9.03;4.90;;;4.80;97.30;;;;;;5053177;28;20187;-86
2022/01/19 01:39:31;;;;;;;8.00;4.17;;;4.80;97.30;;;;;;5052553;28;20229;-85
2022/01/19 01:41:56;;;;;;;9.10;4.30;;;4.80;97.30;;;;;;5052663;28;20187;-85
2022/01/19 01:44:22;;;;;;;9.60;4.23;;;4.80;97.30;;;;;;5052866;28;20175;-85
2022/01/19 01:46:56;;;;;;;8.33;4.13;;;4.80;97.30;;;;;;5052544;28;20175;-85
2022/01/19 01:49:28;;;;;;;8.53;3.83;;;4.80;97.30;;;;;;5052497;28;20591;-86
2022/01/19 01:54:39;;;;;;;7.23;3.50;;;4.80;97.30;;;;;;5070838;28;20501;-86
2022/01/19 01:57:06;;;;;;;9.13;5.13;;;4.70;97.30;;;;;;5052520;28;20409;-85
2022/01/19 01:59:34;;;;;;;9.07;4.20;;;4.70;97.30;;;;;;5052541;28;21002;-86
2022/01/19 02:01:59;;;;;;;9.77;4.50;;;4.70;97.30;;;;;;5052359;28;20410;-85
2022/01/19 02:04:25;;;;;;;6.30;3.60;;;4.70;97.30;;;;;;5052212;28;20417;-85
2022/01/19 02:07:13;;;;;;;7.17;3.57;;;4.70;97.30;;;;;;5052298;28;20555;-85
2022/01/19 02:09:39;;;;;;;9.37;4.20;;;4.70;97.30;;;;;;5070213;28;20675;-85
2022/01/19 02:25:54;;;;;;;24.90;5.57;;;4.50;97.30;;;;;;5070097;28;20669;-85
2022/01/19 02:42:08;;;;;;;18.03;4.57;;;4.20;97.30;;;;;;5090325;28;20447;-85
2022/01/19 02:49:46;;;;;;;10.97;4.20;;;4.00;97.30;;;;;;5090060;28;20563;-85
2022/01/19 02:52:12;;;;;;;9.83;4.63;;;4.00;97.30;;;;;;5090134;28;20445;-85
2022/01/19 02:54:38;;;;;;;8.57;4.27;;;4.00;97.30;;;;;;5071896;28;20440;-85
2022/01/19 02:57:07;;;;;;;8.40;4.33;;;4.00;97.30;;;;;;5072130;28;20178;-86
2022/01/19 03:10:21;;;;;;;8.03;4.47;;;3.80;97.30;;;;;;5089898;28;20463;-85
2022/01/19 03:12:47;;;;;;;7.00;4.00;;;3.80;97.30;;;;;;5071887;28;20785;-85
2022/01/19 03:15:13;;;;;;;9.77;4.03;;;3.80;97.30;;;;;;5091038;28;20184;-86
2022/01/19 03:17:39;;;;;;;12.23;4.40;;;3.70;97.30;;;;;;5090273;28;20316;-85
2022/01/19 03:20:07;;;;;;;8.20;4.13;;;3.70;97.30;;;;;;5072965;28;21020;-85
2022/01/19 03:25:38;;;;;;;7.60;4.30;;;3.60;97.30;;;;;;5036523;28;20427;-85
2022/01/19 03:28:06;;;;;;;11.23;4.80;;;3.60;97.30;;;;;;5010171;28;20869;-85
2022/01/19 03:30:32;;;;;;;17.00;4.40;;;3.50;97.30;;;;;;5039913;28;20475;-86
2022/01/19 03:32:58;;;;;;;8.70;4.27;;;3.40;97.30;;;;;;5071895;28;20443;-85
2022/01/19 03:35:23;;;;;;;6.77;3.90;;;3.40;97.30;;;;;;5056678;28;20424;-85
2022/01/19 03:37:49;;;;;;;9.97;4.93;;;3.30;97.30;;;;;;5051263;28;20638;-86
2022/01/19 03:40:14;;;;;;;9.60;4.33;;;3.20;97.30;;;;;;5051167;28;20317;-85
2022/01/19 03:42:40;;;;;;;11.30;4.63;;;3.20;97.30;;;;;;5050998;28;20179;-85
2022/01/19 03:45:08;;;;;;;10.90;4.43;;;3.20;97.30;;;;;;5051169;28;20190;-85
2022/01/19 03:50:33;;;;;;;14.53;5.23;;;3.20;97.30;;;;;;5020064;28;20532;-86
2022/01/19 03:52:59;;;;;;;13.60;5.47;;;3.20;97.30;;;;;;5073220;28;20417;-86
2022/01/19 03:55:25;;;;;;;9.80;3.70;;;3.10;97.30;;;;;;5054906;28;20424;-85
2022/01/19 03:57:50;;;;;;;6.97;3.83;;;3.10;97.30;;;;;;5054916;28;20210;-85
2022/01/19 04:00:16;;;;;;;8.83;3.70;;;3.10;97.30;;;;;;5054683;28;20210;-85
2022/01/19 04:02:41;;;;;;;10.07;5.03;;;3.00;97.30;;;;;;5054526;28;20175;-85
2022/01/19 04:05:16;;;;;;;9.70;4.20;;;3.00;97.30;;;;;;5054774;28;20601;-85
2022/01/19 04:07:42;;;;;;;7.20;3.97;;;2.90;97.30;;;;;;5054700;28;20578;-85
2022/01/19 04:10:07;;;;;;;9.63;4.10;;;2.90;97.30;;;;;;5054505;28;20467;-85
2022/01/19 04:15:12;;;;;;;10.97;7.00;;;2.80;97.30;;;;;;5072627;28;20285;-85
2022/01/19 04:17:43;;;;;;;9.53;5.17;;;2.80;97.30;;;;;;5054789;28;20470;-85
2022/01/19 04:20:10;;;;;;;8.90;4.33;;;2.90;97.30;;;;;;5054534;28;20444;-86
2022/01/19 04:22:36;;;;;;;10.30;5.23;;;2.90;97.30;;;;;;5056542;28;20437;-85
2022/01/19 04:25:01;;;;;;;15.97;5.40;;;2.90;97.30;;;;;;5054396;28;21051;-85
2022/01/19 04:30:03;;;;;;;10.93;5.17;;;2.90;97.30;;;;;;5071952;28;20191;-86
2022/01/19 04:33:02;;;;;;;14.60;5.37;;;2.90;97.30;;;;;;5072097;28;20250;-86
2022/01/19 04:35:22;;;;;;;8.67;4.20;;;2.80;97.30;;;;;;5085215;28;20417;-85
2022/01/19 05:05:26;;;;;;;11.90;5.20;;;2.30;97.30;;;;;;5091583;28;20408;-86
2022/01/19 05:08:01;;;;;;;8.67;4.40;;;2.20;97.30;;;;;;5073870;28;20413;-85
2022/01/19 05:15:36;;;;;;;10.43;5.50;;;1.90;97.30;;;;;;5091804;28;20224;-83
2022/01/19 05:18:03;;;;;;;8.97;4.90;;;1.90;97.30;;;;;;5073217;28;20416;-85
2022/01/19 05:20:29;;;;;;;10.97;5.57;;;1.90;97.30;;;;;;5073250;28;20206;-85
2022/01/19 05:22:54;;;;;;;7.17;3.93;;;1.90;97.30;;;;;;5073537;28;20501;-85
2022/01/19 05:25:20;;;;;;;8.37;5.00;;;1.90;97.30;;;;;;5073308;28;20421;-85
2022/01/19 05:27:45;;;;;;;9.20;5.60;;;1.90;97.30;;;;;;5073139;28;20746;-85
2022/01/19 05:30:11;;;;;;;13.40;5.20;;;2.00;97.30;;;;;;5072799;28;20209;-85
2022/01/19 05:32:37;;;;;;;10.77;5.97;;;2.00;97.30;;;;;;5073204;28;20176;-84
2022/01/19 05:35:03;;;;;;;19.47;6.60;;;2.00;97.30;;;;;;5079287;28;20414;-85
2022/01/19 05:37:28;;;;;;;15.83;5.70;;;2.00;97.30;;;;;;5070937;28;20167;-85
2022/01/19 05:39:54;;;;;;;13.20;5.70;;;2.00;97.30;;;;;;5052357;28;21018;-85
2022/01/19 05:42:19;;;;;;;11.23;6.20;;;2.00;97.30;;;;;;5052870;28;20179;-85
2022/01/19 05:44:46;;;;;;;11.40;5.90;;;2.00;97.30;;;;;;5070522;28;20190;-85
2022/01/19 05:47:13;;;;;;;12.50;6.57;;;2.00;97.30;;;;;;5052673;28;20175;-85
2022/01/19 05:49:40;;;;;;;12.70;5.80;;;2.00;97.30;;;;;;5052322;28;21091;-85
2022/01/19 05:52:06;;;;;;;12.47;6.10;;;2.00;97.30;;;;;;5052410;28;20409;-85
2022/01/19 05:54:33;;;;;;;14.57;5.40;;;2.00;97.30;;;;;;5070579;28;20517;-85
2022/01/19 05:56:59;;;;;;;10.87;5.40;;;1.90;97.30;;;;;;5052739;28;20414;-85
2022/01/19 05:59:25;;;;;;;10.20;5.60;;;1.90;97.30;;;;;;5052142;28;20434;-85
2022/01/19 06:01:51;;;;;;;13.50;5.83;;;1.80;97.30;;;;;;5052416;28;20421;-85
2022/01/19 06:04:16;;;;;;;16.03;6.87;;;1.80;97.30;;;;;;5052387;28;20175;-85
2022/01/19 06:06:42;;;;;;;19.63;7.63;;;1.90;97.30;;;;;;5052580;28;20175;-85
2022/01/19 06:09:22;;;;;;;15.87;7.07;;;1.90;97.30;;;;;;5052213;28;20339;-86
2022/01/19 06:11:48;;;;;;;16.40;7.20;;;2.00;97.30;;;;;;5070433;28;20246;-86
2022/01/19 06:14:14;;;;;;;17.27;7.73;;;2.00;97.30;;;;;;5052004;28;20409;-86
2022/01/19 06:16:41;;;;;;;16.93;7.10;;;2.00;97.30;;;;;;5052065;28;20999;-85
2022/01/19 06:19:06;;;;;;;20.23;8.63;;;2.00;97.30;;;;;;5051840;28;20202;-85
2022/01/19 06:21:32;;;;;;;19.80;8.53;;;2.10;97.30;;;;;;5052402;28;20421;-86
2022/01/19 06:23:57;;;;;;;21.10;9.13;;;2.10;97.30;;;;;;5052086;28;20303;-85
2022/01/19 06:26:23;;;;;;;24.93;9.57;;;2.20;97.30;;;;;;5070352;28;20175;-85
2022/01/19 06:28:48;;;;;;;24.23;9.57;;;2.20;97.30;;;;;;5052385;28;20199;-85
2022/01/19 06:31:14;;;;;;;22.13;9.07;;;2.20;97.30;;;;;;5052083;28;20290;-85
2022/01/19 06:33:39;;;;;;;22.97;9.90;;;2.30;97.30;;;;;;5052421;28;20575;-86
2022/01/19 06:36:05;;;;;;;23.23;9.57;;;2.30;97.30;;;;;;5071948;28;20209;-85
2022/01/19 06:38:31;;;;;;;27.27;10.43;;;2.40;97.30;;;;;;5071692;28;20233;-85
2022/01/19 06:40:56;;;;;;;22.80;9.97;;;2.40;97.30;;;;;;5090016;28;20462;-85
2022/01/19 06:43:23;;;;;;;23.80;10.07;;;2.40;97.30;;;;;;5071844;28;20178;-85
2022/01/19 06:45:49;;;;;;;34.07;10.90;;;2.40;97.30;;;;;;5071638;28;20178;-85
2022/01/19 06:48:14;;;;;;;23.53;9.77;;;2.40;97.30;;;;;;5090125;28;20405;-85
2022/01/19 06:50:40;;;;;;;24.00;10.07;;;2.40;97.30;;;;;;5071657;28;20201;-85
2022/01/19 06:53:05;;;;;;;24.13;10.47;;;2.50;97.30;;;;;;5072237;28;20220;-85
2022/01/19 06:55:31;;;;;;;25.20;10.17;;;2.50;97.30;;;;;;5071754;28;20174;-85
2022/01/19 06:57:56;;;;;;;25.87;9.20;;;2.50;97.30;;;;;;5071941;28;20178;-84
2022/01/19 07:00:22;;;;;;;26.10;9.60;;;2.50;97.30;;;;;;5071851;28;20248;-86
2022/01/19 07:02:48;;;;;;;25.70;9.87;;;2.50;97.30;;;;;;5071643;28;20551;-85
2022/01/19 07:05:13;;;;;;;38.43;10.00;;;2.50;97.30;;;;;;5089922;28;20176;-85
2022/01/19 07:07:40;;;;;;;27.60;10.80;;;2.50;97.30;;;;;;5090080;28;20203;-85
2022/01/19 07:10:07;;;;;;;26.57;10.30;;;2.50;97.30;;;;;;5093873;28;20770;-85
2022/01/19 07:12:33;;;;;;;27.83;10.03;;;2.40;97.30;;;;;;5071989;28;20501;-86
2022/01/19 07:14:59;;;;;;;28.90;10.63;;;2.40;97.30;;;;;;5090070;28;20487;-85
2022/01/19 07:17:24;;;;;;;25.90;10.20;;;2.40;97.30;;;;;;5071769;28;20173;-86
2022/01/19 07:19:50;;;;;;;39.30;10.90;;;2.40;97.30;;;;;;5090013;28;20223;-85
2022/01/19 07:22:16;;;;;;;28.37;9.87;;;2.40;97.30;;;;;;5090531;28;20663;-86
2022/01/19 07:24:42;;;;;;;34.80;12.40;;;2.40;97.30;;;;;;5075337;28;20174;-86
2022/01/19 07:27:08;;;;;;;28.03;11.73;;;2.40;97.30;;;;;;5075806;28;20189;-85
2022/01/19 07:29:33;;;;;;;31.47;11.43;;;2.40;97.30;;;;;;5075232;28;20456;-85
2022/01/19 07:32:00;;;;;;;28.57;11.20;;;2.50;97.30;;;;;;5093880;28;20714;-86
2022/01/19 07:34:25;;;;;;;29.27;10.97;;;2.50;97.30;;;;;;5068657;28;20216;-85
2022/01/19 07:36:55;;;;;;;31.63;11.70;;;2.50;97.30;;;;;;5055404;28;20417;-85
2022/01/19 07:39:22;;;;;;;33.50;11.60;;;2.50;97.30;;;;;;5055137;28;20726;-85
2022/01/19 07:41:48;;;;;;;25.13;9.70;;;2.50;97.30;;;;;;5055263;28;20417;-85
2022/01/19 07:44:14;;;;;;;26.80;10.90;;;2.40;97.30;;;;;;5055191;28;20409;-86
2022/01/19 07:46:40;;;;;;;23.90;10.50;;;2.30;97.30;;;;;;5073195;28;20163;-85
2022/01/19 07:49:05;;;;;;;26.03;10.67;;;2.40;97.30;;;;;;5060485;28;20472;-85
2022/01/19 07:51:31;;;;;;;25.30;10.00;;;2.30;97.30;;;;;;5055870;28;20926;-85
2022/01/19 07:53:57;;;;;;;24.30;9.00;;;2.30;97.30;;;;;;5054524;28;20168;-85
2022/01/19 07:56:22;;;;;;;18.83;7.83;;;2.30;97.30;;;;;;5055004;28;20172;-85
2022/01/19 07:58:48;;;;;;;21.23;9.30;;;2.30;97.30;;;;;;5073215;28;20183;-85
2022/01/19 08:01:13;;;;;;;18.63;9.03;;;2.30;97.30;;;;;;5055645;28;20199;-85
2022/01/19 08:03:38;;;;;;;19.00;8.17;;;2.30;97.30;;;;;;5054805;28;20171;-85
2022/01/19 08:06:04;;;;;;;21.57;9.63;;;2.30;97.30;;;;;;5054795;28;20206;-85
2022/01/19 08:08:29;;;;;;;16.80;7.87;;;2.30;97.30;;;;;;5073021;28;20191;-84
2022/01/19 08:10:55;;;;;;;19.37;8.43;;;2.30;97.30;;;;;;5055730;28;20213;-84
2022/01/19 08:13:21;;;;;;;17.30;7.43;;;2.30;97.30;;;;;;5054885;28;20281;-85
2022/01/19 08:15:47;;;;;;;21.57;7.80;;;2.20;97.30;;;;;;5072650;28;20172;-85
2022/01/19 08:18:12;;;;;;;17.70;7.40;;;2.30;97.30;;;;;;5054774;28;20441;-85
2022/01/19 08:20:42;;;;;;;15.33;7.63;;;2.30;97.30;;;;;;5054232;28;20653;-85
2022/01/19 08:23:07;;;;;;;13.10;6.13;;;2.20;97.30;;;;;;5054165;28;20182;-86
2022/01/19 08:25:33;;;;;;;18.50;8.10;;;2.20;97.30;;;;;;5054338;28;20414;-85
2022/01/19 08:27:59;;;;;;;17.43;6.97;;;2.20;97.30;;;;;;5072728;28;20179;-85
2022/01/19 08:30:24;;;;;;;16.27;7.47;;;2.20;97.30;;;;;;5054069;28;20294;-84
2022/01/19 08:32:50;;;;;;;15.63;7.27;;;2.20;97.30;;;;;;5054221;28;20199;-86
2022/01/19 08:35:15;;;;;;;19.67;7.63;;;2.20;97.30;;;;;;5065953;28;20196;-86
2022/01/19 08:37:41;;;;;;;13.77;7.20;;;2.20;97.30;;;;;;5074008;28;20672;-85
2022/01/19 08:40:07;;;;;;;19.43;7.80;;;2.20;97.30;;;;;;5073832;28;20225;-86
2022/01/19 08:42:33;;;;;;;17.63;8.70;;;2.30;97.30;;;;;;5092266;28;20171;-86
2022/01/19 08:45:05;;;;;;;17.20;9.13;;;2.30;97.30;;;;;;5074291;28;21002;-86
2022/01/19 08:47:31;;;;;;;16.73;8.17;;;2.30;97.30;;;;;;5074260;28;20269;-85
2022/01/19 08:49:57;;;;;;;16.03;7.40;;;2.30;97.30;;;;;;5074107;28;20503;-86
2022/01/19 08:52:23;;;;;;;13.20;6.90;;;2.40;97.30;;;;;;5092238;28;20464;-86
2022/01/19 08:54:48;;;;;;;16.93;7.50;;;2.40;97.30;;;;;;5074292;28;20179;-86
2022/01/19 08:57:14;;;;;;;15.40;6.47;;;2.40;97.30;;;;;;5092268;28;20178;-85
2022/01/19 08:59:40;;;;;;;14.17;7.90;;;2.50;97.30;;;;;;5092238;28;20194;-86
2022/01/19 09:02:06;;;;;;;13.97;6.03;;;2.50;97.30;;;;;;5073923;28;20178;-85
2022/01/19 09:04:32;;;;;;;18.90;7.97;;;2.50;97.30;;;;;;5074312;28;20269;-86
2022/01/19 09:06:59;;;;;;;10.90;5.93;;;2.60;97.30;;;;;;5073959;28;20483;-85
2022/01/19 09:09:25;;;;;;;12.43;6.23;;;2.60;97.30;;;;;;5073703;28;20214;-85
2022/01/19 09:11:50;;;;;;;12.00;6.57;;;2.70;97.30;;;;;;5073525;28;20891;-85
2022/01/19 09:14:16;;;;;;;10.80;5.37;;;2.70;97.30;;;;;;5073252;28;20347;-86
2022/01/19 09:16:41;;;;;;;12.17;6.17;;;2.70;97.30;;;;;;5092122;28;20208;-85
2022/01/19 09:19:07;;;;;;;9.70;5.33;;;2.70;97.30;;;;;;5074027;28;20186;-85
2022/01/19 09:21:34;;;;;;;11.50;5.63;;;2.80;97.30;;;;;;5074719;28;20205;-85
2022/01/19 09:23:59;;;;;;;10.40;5.57;;;2.80;97.30;;;;;;5098624;28;20549;-86
2022/01/19 09:26:25;;;;;;;12.33;5.90;;;2.90;97.30;;;;;;5077329;28;20415;-85
2022/01/19 09:28:50;;;;;;;11.17;5.50;;;2.90;97.30;;;;;;5073271;28;20649;-86
2022/01/19 09:31:18;;;;;;;10.20;5.20;;;2.90;97.30;;;;;;5073195;28;20232;-85
2022/01/19 09:33:52;;;;;;;8.53;4.67;;;3.00;97.30;;;;;;5090856;28;20205;-85
2022/01/19 09:36:31;;;;;;;13.73;5.83;;;3.00;97.30;;;;;;5046043;28;20777;-85
2022/01/19 09:38:57;;;;;;;8.80;4.90;;;3.00;97.30;;;;;;5052764;28;20473;-85
2022/01/19 09:41:23;;;;;;;10.57;5.07;;;3.10;97.30;;;;;;5052929;28;20512;-85
2022/01/19 09:43:48;;;;;;;11.07;5.47;;;3.10;97.30;;;;;;5071229;28;20417;-86
2022/01/19 09:46:14;;;;;;;9.60;5.40;;;3.10;97.30;;;;;;5052331;28;20418;-85
2022/01/19 09:48:40;;;;;;;12.63;6.07;;;3.10;97.30;;;;;;5053028;28;20199;-86
2022/01/19 09:51:06;;;;;;;12.73;5.63;;;3.10;97.30;;;;;;5052650;28;20613;-85
2022/01/19 09:53:31;;;;;;;9.90;5.40;;;3.10;97.30;;;;;;5070554;28;20250;-85
2022/01/19 09:55:57;;;;;;;10.63;5.27;;;3.20;97.30;;;;;;5052508;28;20417;-85
2022/01/19 09:58:23;;;;;;;10.37;5.70;;;3.20;97.30;;;;;;5052276;28;20417;-86
2022/01/19 10:00:50;;;;;;;10.40;5.43;;;3.20;97.30;;;;;;5052384;28;20182;-85
2022/01/19 10:03:17;;;;;;;10.73;6.10;;;3.20;97.30;;;;;;5052132;28;20198;-85
2022/01/19 10:06:07;;;;;;;9.20;5.80;;;3.20;97.30;;;;;;5052171;28;20426;-86
2022/01/19 10:08:44;;;;;;;8.70;5.07;;;3.20;97.30;;;;;;5052544;28;20441;-86
2022/01/19 10:17:06;;;;;;;8.93;5.40;;;3.20;97.30;;;;;;5070494;28;20416;-85
2022/01/19 10:19:49;;;;;;;6.70;4.30;;;3.20;97.30;;;;;;5052207;28;20451;-85
2022/01/19 10:22:25;;;;;;;7.57;4.20;;;3.20;97.30;;;;;;5051876;28;20490;-85
2022/01/19 10:25:03;;;;;;;9.27;5.00;;;3.30;97.30;;;;;;5070297;28;20421;-86
2022/01/19 10:27:33;;;;;;;8.83;5.10;;;3.20;97.30;;;;;;5052039;28;20479;-86
2022/01/19 10:30:02;;;;;;;4.33;3.33;;;3.20;97.30;;;;;;5051670;28;20536;-85
2022/01/19 10:32:28;;;;;;;7.30;4.57;;;3.20;97.30;;;;;;5069829;28;20412;-85
2022/01/19 10:34:54;;;;;;;8.13;4.67;;;3.20;97.30;;;;;;5080547;28;20447;-85
2022/01/19 10:37:25;;;;;;;7.73;5.10;;;3.20;97.30;;;;;;5061504;28;20802;-84
2022/01/19 10:39:54;;;;;;;7.40;4.30;;;3.20;97.30;;;;;;5060495;28;20262;-85
2022/01/19 10:42:22;;;;;;;7.80;4.53;;;3.30;97.30;;;;;;5051497;28;20430;-86
2022/01/19 10:44:51;;;;;;;7.67;4.30;;;3.40;97.30;;;;;;5052156;28;20592;-85
2022/01/19 10:47:18;;;;;;;5.33;4.10;;;3.40;97.30;;;;;;5070217;28;20406;-86
2022/01/19 10:49:55;;;;;;;6.07;4.53;;;3.40;97.30;;;;;;5063024;28;20464;-86
2022/01/19 10:52:34;;;;;;;7.83;3.90;;;3.40;97.30;;;;;;5052103;28;20413;-86
2022/01/19 10:55:01;;;;;;;7.30;4.23;;;3.40;97.30;;;;;;5069329;28;20410;-87
2022/01/19 10:57:29;;;;;;;6.77;4.23;;;3.40;97.30;;;;;;5070663;28;20462;-84
2022/01/19 11:00:22;;;;;;;8.70;4.60;;;3.50;97.30;;;;;;5070602;28;20435;-85
2022/01/19 11:02:49;;;;;;;8.33;5.17;;;3.50;97.30;;;;;;5048916;28;20421;-85
2022/01/19 11:05:16;;;;;;;8.93;4.83;;;3.60;97.30;;;;;;5051951;28;20441;-85
2022/01/19 11:07:42;;;;;;;7.33;4.90;;;3.60;97.30;;;;;;5055772;28;20460;-85
2022/01/19 11:12:41;;;;;;;7.53;5.00;;;3.80;97.30;;;;;;5073055;28;20908;-83
2022/01/19 11:15:09;;;;;;;7.10;4.07;;;3.90;97.30;;;;;;5058126;28;20861;-85
2022/01/19 11:17:35;;;;;;;7.60;4.50;;;4.20;97.30;;;;;;5054173;28;20421;-84
2022/01/19 11:20:07;;;;;;;6.50;4.70;;;4.50;97.30;;;;;;5051745;28;20448;-85
2022/01/19 11:22:36;;;;;;;10.10;3.87;;;4.80;97.30;;;;;;5057082;28;20427;-85
2022/01/19 11:25:13;;;;;;;5.73;4.13;;;5.00;97.30;;;;;;5071488;28;20500;-83
2022/01/19 11:27:45;;;;;;;6.33;4.20;;;5.20;97.30;;;;;;5085641;28;20405;-85
2022/01/19 11:30:11;;;;;;;5.50;4.13;;;5.20;97.30;;;;;;5070066;28;20472;-85
2022/01/19 11:32:37;;;;;;;5.77;4.20;;;5.20;97.30;;;;;;5071352;28;20476;-86
2022/01/19 11:35:03;;;;;;;6.10;4.53;;;5.20;97.30;;;;;;5058628;28;20172;-86
2022/01/19 11:37:38;;;;;;;5.93;3.80;;;5.30;97.30;;;;;;5075077;28;20178;-86
2022/01/19 11:40:18;;;;;;;6.50;4.20;;;5.40;97.30;;;;;;5071439;28;20549;-86
2022/01/19 11:42:44;;;;;;;5.90;3.60;;;5.60;97.30;;;;;;5071264;28;20458;-86
2022/01/19 11:45:38;;;;;;;8.30;4.67;;;5.60;97.30;;;;;;5076383;28;20409;-86
2022/01/19 11:48:24;;;;;;;9.20;4.60;;;5.60;97.30;;;;;;5071058;28;20949;-86
2022/01/19 11:50:51;;;;;;;7.43;4.07;;;5.70;97.30;;;;;;5070998;28;20464;-86
2022/01/19 11:53:17;;;;;;;5.27;3.80;;;5.80;97.30;;;;;;5070824;28;20412;-86
2022/01/19 11:56:04;;;;;;;5.90;3.73;;;6.00;97.30;;;;;;5070885;28;20842;-86
2022/01/19 11:58:31;;;;;;;6.90;4.13;;;6.00;97.30;;;;;;5070745;28;20523;-86
2022/01/19 12:00:57;;;;;;;5.60;4.00;;;6.10;97.30;;;;;;5070886;28;20430;-86
2022/01/19 12:03:31;;;;;;;7.33;4.67;;;6.10;97.30;;;;;;5071310;28;20408;-86
2022/01/19 12:05:57;;;;;;;4.07;2.77;;;6.20;97.30;;;;;;5070748;28;20477;-86
2022/01/19 12:08:32;;;;;;;7.40;3.77;;;6.30;97.30;;;;;;5089685;28;20417;-86
2022/01/19 12:11:18;;;;;;;5.97;3.60;;;6.50;97.30;;;;;;5074250;28;20206;-85
2022/01/19 12:14:00;;;;;;;5.70;3.77;;;6.60;97.30;;;;;;5074210;28;20445;-87
2022/01/19 12:16:51;;;;;;;6.03;3.63;;;6.80;97.30;;;;;;5074003;28;20423;-86
2022/01/19 12:19:23;;;;;;;5.60;3.57;;;6.80;97.30;;;;;;5074347;28;20529;-86
2022/01/19 12:22:03;;;;;;;6.20;3.40;;;6.90;97.30;;;;;;5074407;28;20930;-86
2022/01/19 12:24:36;;;;;;;5.77;3.00;;;6.90;97.30;;;;;;5092220;28;20416;-85
2022/01/19 12:27:22;;;;;;;5.87;3.70;;;6.90;97.30;;;;;;5092426;28;20782;-86
2022/01/19 12:30:03;;;;;;;5.10;2.70;;;6.90;97.30;;;;;;5074411;28;20456;-86
2022/01/19 12:32:33;;;;;;;4.97;3.77;;;7.10;97.30;;;;;;5074374;28;20437;-86
2022/01/19 12:35:09;;;;;;;2.93;2.60;;;7.10;97.30;;;;;;5073840;28;20952;-86
2022/01/19 12:37:48;;;;;;;4.40;3.00;;;7.30;97.30;;;;;;5074244;28;20666;-86
2022/01/19 12:40:17;;;;;;;4.13;3.17;;;7.40;97.30;;;;;;5074254;28;20468;-86
2022/01/19 12:42:50;;;;;;;6.17;3.07;;;7.70;97.30;;;;;;5073614;28;20926;-86
2022/01/19 12:45:27;;;;;;;3.67;3.00;;;8.00;97.30;;;;;;5074262;28;20427;-86
2022/01/19 12:48:07;;;;;;;4.80;3.07;;;8.00;97.00;;;;;;5073916;28;20431;-86
2022/01/19 12:50:32;;;;;;;4.27;3.47;;;7.90;96.90;;;;;;5074171;28;20464;-86
2022/01/19 12:53:10;;;;;;;6.40;3.40;;;8.00;97.00;;;;;;5073657;28;20413;-86
2022/01/19 12:55:38;;;;;;;4.60;3.17;;;8.00;96.60;;;;;;5091721;28;20186;-86
2022/01/19 12:58:18;;;;;;;6.03;3.80;;;7.70;96.70;;;;;;5073722;28;20763;-86
2022/01/19 13:00:48;;;;;;;3.80;3.00;;;7.50;97.30;;;;;;5073530;28;20794;-86
2022/01/19 13:03:32;;;;;;;5.00;3.70;;;7.60;97.30;;;;;;5073248;28;20416;-86
2022/01/19 13:06:05;;;;;;;5.73;2.90;;;7.60;97.30;;;;;;5073331;28;20413;-86
2022/01/19 13:09:04;;;;;;;4.87;2.90;;;7.70;97.00;;;;;;5091783;28;20436;-86
2022/01/19 13:14:12;;;;;;;4.47;2.83;;;7.30;97.30;;;;;;5091297;28;20488;-87
2022/01/19 13:16:46;;;;;;;5.23;2.73;;;7.10;97.30;;;;;;5091456;28;20489;-85
2022/01/19 13:19:16;;;;;;;4.00;3.03;;;6.90;97.30;;;;;;5072523;28;20447;-86
2022/01/19 13:21:45;;;;;;;4.53;3.10;;;7.10;97.30;;;;;;5087382;28;20408;-86
2022/01/19 13:24:26;;;;;;;4.70;3.00;;;7.50;97.30;;;;;;5066547;28;21081;-85
2022/01/19 13:26:54;;;;;;;3.43;2.77;;;7.20;97.30;;;;;;5070203;28;20416;-85
2022/01/19 13:29:37;;;;;;;4.27;2.83;;;7.30;97.30;;;;;;5052600;28;20475;-86
2022/01/19 13:32:11;;;;;;;4.70;2.93;;;7.60;97.30;;;;;;5070620;28;20413;-85
2022/01/19 13:34:57;;;;;;;4.40;3.10;;;8.00;97.30;;;;;;5052398;28;20805;-86
2022/01/19 13:37:29;;;;;;;5.53;2.60;;;8.40;96.30;;;;;;5052545;28;20417;-86
2022/01/19 13:40:11;;;;;;;3.83;3.00;;;8.60;95.20;;;;;;5037159;28;20586;-86
2022/01/19 13:42:40;;;;;;;5.70;2.80;;;8.50;94.40;;;;;;5032992;28;20430;-86
2022/01/19 13:45:13;;;;;;;6.37;3.60;;;8.10;95.20;;;;;;5032694;28;20605;-86
2022/01/19 13:50:55;;;;;;;8.47;3.93;;;7.30;97.10;;;;;;5026799;28;20543;-85
2022/01/19 13:53:32;;;;;;;5.00;2.90;;;7.10;97.30;;;;;;5050441;28;20417;-85
2022/01/19 13:55:58;;;;;;;5.60;3.23;;;7.30;97.30;;;;;;5032710;28;20417;-86
2022/01/19 13:58:49;;;;;;;7.30;4.00;;;7.20;97.30;;;;;;5050800;28;20449;-85
2022/01/19 14:01:22;;;;;;;6.17;3.70;;;7.00;97.30;;;;;;5032551;28;20501;-85
2022/01/19 14:03:56;;;;;;;6.43;3.70;;;6.90;97.30;;;;;;5032118;28;20857;-85
2022/01/19 14:06:26;;;;;;;6.77;3.53;;;6.90;97.30;;;;;;5032491;28;20425;-85
2022/01/19 14:09:10;;;;;;;7.83;3.13;;;7.10;97.30;;;;;;5032309;28;20497;-86
2022/01/19 14:11:37;;;;;;;5.80;2.80;;;7.20;97.30;;;;;;5050606;28;20418;-86
2022/01/19 14:14:09;;;;;;;7.70;3.30;;;7.10;97.30;;;;;;5049953;28;20406;-85
2022/01/19 14:16:39;;;;;;;5.80;3.30;;;7.20;97.30;;;;;;5050568;28;20485;-86
2022/01/19 14:19:19;;;;;;;3.50;2.87;;;7.60;97.30;;;;;;5032420;28;20438;-86
2022/01/19 14:22:12;;;;;;;12.03;3.43;;;7.90;97.20;;;;;;5050068;28;20416;-85
2022/01/19 14:24:42;;;;;;;7.23;3.47;;;7.70;96.90;;;;;;5050329;28;20433;-86
2022/01/19 14:27:12;;;;;;;5.83;3.40;;;7.70;96.70;;;;;;5031980;28;20415;-86
2022/01/19 14:29:58;;;;;;;8.40;3.30;;;7.70;96.10;;;;;;5031782;28;20910;-87
2022/01/19 14:32:48;;;;;;;4.93;3.17;;;7.70;95.80;;;;;;5050060;28;20497;-86
2022/01/19 14:35:46;;;;;;;7.70;3.17;;;7.60;96.30;;;;;;5044924;28;20787;-87
2022/01/19 14:38:36;;;;;;;5.83;3.40;;;7.50;96.00;;;;;;5051818;28;20783;-86
2022/01/19 14:41:10;;;;;;;6.53;3.43;;;7.40;95.60;;;;;;5051621;28;20508;-86
2022/01/19 14:44:03;;;;;;;6.10;3.83;;;7.30;96.30;;;;;;5052217;28;20412;-86
2022/01/19 14:47:05;;;;;;;8.53;3.50;;;7.30;96.80;;;;;;5051638;28;20559;-86
2022/01/19 14:49:33;;;;;;;10.10;4.00;;;7.20;96.70;;;;;;5053665;28;20469;-86
2022/01/19 14:52:00;;;;;;;8.20;4.43;;;7.00;96.70;;;;;;5054238;28;20416;-87